Time;durP1;ratioP1;P1;durP2;ratioP2;P2;SDS_P1;SDS_P2;PMS_P1;PMS_P2;Temp;Humidity;BMP_temperature;BMP_pressure;BME280_temperature;BME280_humidity;BME280_pressure;Samples;Min_cycle;Max_cycle;Signal;HPM_P1;HPM_P2
2021/01/13 00:00:28;;;;;;;9.18;6.88;;;;;;;;;;5036861;28;20054;-86
2021/01/13 00:02:54;;;;;;;8.60;6.47;;;;;;;;;;5018072;28;20053;-87
2021/01/13 00:05:21;;;;;;;9.77;6.75;;;;;;;;;;5017450;28;20505;-87
2021/01/13 00:07:49;;;;;;;8.70;6.50;;;;;;;;;;5031661;28;20053;-86
2021/01/13 00:10:16;;;;;;;12.55;7.18;;;;;;;;;;5038417;28;20057;-86
2021/01/13 00:12:43;;;;;;;10.25;7.30;;;;;;;;;;5035922;28;20075;-86
2021/01/13 00:15:10;;;;;;;9.57;6.30;;;;;;;;;;5038288;28;20057;-86
2021/01/13 00:17:36;;;;;;;12.18;6.80;;;;;;;;;;5055513;28;20059;-86
2021/01/13 00:20:04;;;;;;;9.52;6.70;;;;;;;;;;5058939;28;20045;-86
2021/01/13 00:22:30;;;;;;;11.43;7.20;;;;;;;;;;5058831;28;20041;-86
2021/01/13 00:24:57;;;;;;;11.75;5.82;;;;;;;;;;5057407;28;20045;-86
2021/01/13 00:27:23;;;;;;;10.35;6.60;;;;;;;;;;5056255;28;20120;-87
2021/01/13 00:29:50;;;;;;;10.65;6.25;;;;;;;;;;5055155;28;20049;-87
2021/01/13 00:32:16;;;;;;;10.30;5.65;;;;;;;;;;5055074;28;20107;-87
2021/01/13 00:34:42;;;;;;;12.52;6.47;;;;;;;;;;5055046;28;20457;-87
2021/01/13 00:37:08;;;;;;;10.55;6.60;;;;;;;;;;5054572;28;20040;-87
2021/01/13 00:39:34;;;;;;;10.55;6.75;;;;;;;;;;5057671;28;20049;-86
2021/01/13 00:42:00;;;;;;;9.77;5.88;;;;;;;;;;5058374;28;20095;-86
2021/01/13 00:44:26;;;;;;;9.00;5.82;;;;;;;;;;5050307;28;20060;-86
2021/01/13 00:46:53;;;;;;;9.70;6.00;;;;;;;;;;5038677;28;20045;-86
2021/01/13 00:49:19;;;;;;;8.75;5.97;;;;;;;;;;5038764;28;20544;-86
2021/01/13 00:51:45;;;;;;;10.32;5.78;;;;;;;;;;5040367;28;20053;-86
2021/01/13 00:54:12;;;;;;;8.38;5.55;;;;;;;;;;5039250;28;20504;-86
2021/01/13 00:56:40;;;;;;;9.30;5.75;;;;;;;;;;5037365;28;20053;-86
2021/01/13 00:59:06;;;;;;;10.88;5.15;;;;;;;;;;5036838;28;20053;-86
2021/01/13 01:01:32;;;;;;;13.75;6.70;;;;;;;;;;5036938;28;20049;-86
2021/01/13 01:03:59;;;;;;;8.38;5.13;;;;;;;;;;5037002;28;20107;-86
2021/01/13 01:06:25;;;;;;;9.23;5.50;;;;;;;;;;5038124;28;20049;-86
2021/01/13 01:08:52;;;;;;;9.13;5.57;;;;;;;;;;5038277;28;20049;-86
2021/01/13 01:11:19;;;;;;;9.25;6.05;;;;;;;;;;5038222;28;20045;-86
2021/01/13 01:13:45;;;;;;;10.55;6.75;;;;;;;;;;5037632;28;20045;-87
2021/01/13 01:16:11;;;;;;;9.93;6.10;;;;;;;;;;5036509;28;20049;-86
2021/01/13 01:18:37;;;;;;;11.18;6.30;;;;;;;;;;5036845;28;20489;-86
2021/01/13 01:21:07;;;;;;;9.85;6.15;;;;;;;;;;5036984;28;20058;-86
2021/01/13 01:23:32;;;;;;;15.65;7.40;;;;;;;;;;5037136;28;20061;-86
2021/01/13 01:26:00;;;;;;;11.52;6.80;;;;;;;;;;5037755;28;20042;-85
2021/01/13 01:28:26;;;;;;;13.60;7.43;;;;;;;;;;5036537;28;20054;-86
2021/01/13 01:30:52;;;;;;;15.93;7.25;;;;;;;;;;5037635;28;20578;-85
2021/01/13 01:33:18;;;;;;;13.10;7.32;;;;;;;;;;5038314;28;20101;-85
2021/01/13 01:35:44;;;;;;;12.75;7.25;;;;;;;;;;5038866;28;20046;-86
2021/01/13 01:38:11;;;;;;;16.10;7.38;;;;;;;;;;5037615;28;20053;-86
2021/01/13 01:40:37;;;;;;;14.85;7.70;;;;;;;;;;5038918;28;20057;-85
2021/01/13 01:43:03;;;;;;;14.38;7.40;;;;;;;;;;5038576;28;20041;-85
2021/01/13 01:45:31;;;;;;;12.00;7.35;;;;;;;;;;5037747;28;20044;-86
2021/01/13 01:48:08;;;;;;;14.93;7.88;;;;;;;;;;5038060;28;20112;-86
2021/01/13 01:50:36;;;;;;;14.77;8.38;;;;;;;;;;5038202;28;20049;-86
2021/01/13 01:53:11;;;;;;;11.77;6.93;;;;;;;;;;5037796;28;20049;-86
2021/01/13 01:55:49;;;;;;;12.52;7.57;;;;;;;;;;5037615;28;20402;-86
2021/01/13 01:58:24;;;;;;;11.93;7.07;;;;;;;;;;5038375;28;20342;-86
2021/01/13 02:00:52;;;;;;;14.20;8.05;;;;;;;;;;5036761;28;20041;-86
2021/01/13 02:03:22;;;;;;;12.38;7.05;;;;;;;;;;5044778;22;20509;-81
2021/01/13 02:05:50;;;;;;;13.48;7.28;;;;;;;;;;5038163;28;20046;-81
2021/01/13 02:08:21;;;;;;;15.43;8.15;;;;;;;;;;5038113;28;20049;-82
2021/01/13 02:10:48;;;;;;;11.30;7.10;;;;;;;;;;5021118;28;20406;-81
2021/01/13 02:13:15;;;;;;;13.93;8.02;;;;;;;;;;5038744;28;20045;-81
2021/01/13 02:15:41;;;;;;;11.20;6.93;;;;;;;;;;5037406;28;20049;-82
2021/01/13 02:18:10;;;;;;;15.50;7.47;;;;;;;;;;5020978;28;20042;-82
2021/01/13 02:20:39;;;;;;;12.88;8.40;;;;;;;;;;5037529;28;20045;-81
2021/01/13 02:23:06;;;;;;;12.43;7.78;;;;;;;;;;5038106;28;20087;-81
2021/01/13 02:26:05;;;;;;;11.32;8.43;;;;;;;;;;5020099;28;20038;-82
2021/01/13 02:28:38;;;;;;;14.50;8.55;;;;;;;;;;5038016;28;20429;-82
2021/01/13 02:31:31;;;;;;;16.77;8.80;;;;;;;;;;5038410;28;20418;-81
2021/01/13 02:34:03;;;;;;;15.52;8.30;;;;;;;;;;4999985;28;20053;-81
2021/01/13 02:37:02;;;;;;;14.10;9.02;;;;;;;;;;5038151;28;20042;-82
2021/01/13 02:39:28;;;;;;;16.77;8.57;;;;;;;;;;5030036;28;20053;-82
2021/01/13 02:41:58;;;;;;;13.07;8.73;;;;;;;;;;5039263;28;20049;-81
2021/01/13 02:44:28;;;;;;;13.90;8.30;;;;;;;;;;5041180;28;20068;-81
2021/01/13 02:47:06;;;;;;;14.50;8.15;;;;;;;;;;5036877;28;20041;-82
2021/01/13 02:49:38;;;;;;;16.67;8.93;;;;;;;;;;5037649;28;20052;-82
2021/01/13 02:52:12;;;;;;;17.98;9.48;;;;;;;;;;5036594;28;20111;-82
2021/01/13 02:54:42;;;;;;;15.07;8.50;;;;;;;;;;5036413;28;20083;-82
2021/01/13 02:57:08;;;;;;;18.63;9.25;;;;;;;;;;5037223;28;20092;-83
2021/01/13 02:59:37;;;;;;;13.63;8.30;;;;;;;;;;5019669;28;20048;-82
2021/01/13 03:02:10;;;;;;;17.60;9.90;;;;;;;;;;5018659;28;20081;-82
2021/01/13 03:04:36;;;;;;;16.25;9.30;;;;;;;;;;5021047;28;20132;-81
2021/01/13 03:07:05;;;;;;;15.98;9.02;;;;;;;;;;5039495;28;20048;-82
2021/01/13 03:09:33;;;;;;;17.15;8.65;;;;;;;;;;5038775;28;20485;-81
2021/01/13 03:11:59;;;;;;;17.92;8.98;;;;;;;;;;5038556;28;20130;-82
2021/01/13 03:14:26;;;;;;;15.13;8.77;;;;;;;;;;5020774;28;20477;-82
2021/01/13 03:17:12;;;;;;;18.00;9.48;;;;;;;;;;5039055;28;20072;-81
2021/01/13 03:20:03;;;;;;;13.75;7.80;;;;;;;;;;5020254;28;20046;-81
2021/01/13 03:22:32;;;;;;;16.60;8.70;;;;;;;;;;5039589;28;20428;-82
2021/01/13 03:25:03;;;;;;;16.90;8.65;;;;;;;;;;5038793;28;20048;-82
2021/01/13 03:27:32;;;;;;;16.13;8.75;;;;;;;;;;5039348;28;20496;-82
2021/01/13 03:29:58;;;;;;;17.38;9.27;;;;;;;;;;5038789;28;20079;-81
2021/01/13 03:32:29;;;;;;;14.82;9.05;;;;;;;;;;5020901;28;20049;-82
2021/01/13 03:35:03;;;;;;;18.77;8.60;;;;;;;;;;5039109;28;20456;-81
2021/01/13 03:37:40;;;;;;;15.95;8.73;;;;;;;;;;5039675;28;20041;-81
2021/01/13 03:40:07;;;;;;;15.63;9.10;;;;;;;;;;5038640;28;20413;-81
2021/01/13 03:42:36;;;;;;;15.63;8.13;;;;;;;;;;5021069;28;20049;-81
2021/01/13 03:45:06;;;;;;;19.45;8.73;;;;;;;;;;5038716;28;20041;-82
2021/01/13 03:47:51;;;;;;;17.92;8.43;;;;;;;;;;5038028;28;20037;-82
2021/01/13 03:50:21;;;;;;;14.02;9.10;;;;;;;;;;5046264;28;20057;-82
2021/01/13 03:52:56;;;;;;;15.13;8.50;;;;;;;;;;5046339;28;20390;-82
2021/01/13 03:55:22;;;;;;;16.38;8.10;;;;;;;;;;5047633;28;20056;-82
2021/01/13 03:58:09;;;;;;;15.90;9.35;;;;;;;;;;5012914;28;20045;-83
2021/01/13 04:00:41;;;;;;;15.32;8.93;;;;;;;;;;5046656;28;20037;-83
2021/01/13 04:03:13;;;;;;;18.15;9.73;;;;;;;;;;5028462;28;20296;-82
2021/01/13 04:05:42;;;;;;;17.20;9.32;;;;;;;;;;5047414;28;20107;-82
2021/01/13 04:08:10;;;;;;;17.63;8.48;;;;;;;;;;5046723;28;20497;-83
2021/01/13 04:10:36;;;;;;;17.02;7.88;;;;;;;;;;5047732;28;20087;-82
2021/01/13 04:13:07;;;;;;;15.95;8.65;;;;;;;;;;5029333;28;20041;-83
2021/01/13 04:15:36;;;;;;;16.10;8.55;;;;;;;;;;5029630;28;20049;-82
2021/01/13 04:18:04;;;;;;;16.05;8.25;;;;;;;;;;5046538;28;20064;-82
2021/01/13 04:20:32;;;;;;;16.48;8.73;;;;;;;;;;5047734;28;20046;-83
2021/01/13 04:22:58;;;;;;;13.60;7.78;;;;;;;;;;5047244;28;20091;-82
2021/01/13 04:25:25;;;;;;;15.30;7.85;;;;;;;;;;5029494;28;20046;-82
2021/01/13 04:27:52;;;;;;;14.13;8.52;;;;;;;;;;5046621;28;20097;-83
2021/01/13 04:30:19;;;;;;;17.60;8.57;;;;;;;;;;5047283;28;20048;-82
2021/01/13 04:32:46;;;;;;;12.32;7.65;;;;;;;;;;5047774;28;20041;-83
2021/01/13 04:35:13;;;;;;;18.33;8.93;;;;;;;;;;5030031;28;20053;-82
2021/01/13 04:37:41;;;;;;;15.32;7.95;;;;;;;;;;5048720;28;20072;-82
2021/01/13 04:40:24;;;;;;;15.80;7.57;;;;;;;;;;5047327;28;20049;-82
2021/01/13 04:43:00;;;;;;;15.32;8.00;;;;;;;;;;5030913;28;20045;-83
2021/01/13 04:45:40;;;;;;;14.38;7.40;;;;;;;;;;5030651;28;20049;-83
2021/01/13 04:48:07;;;;;;;15.80;7.82;;;;;;;;;;5047321;28;20041;-82
2021/01/13 04:50:35;;;;;;;19.08;9.02;;;;;;;;;;5047841;28;20045;-82
2021/01/13 04:53:10;;;;;;;15.57;8.35;;;;;;;;;;5048485;28;20071;-83
2021/01/13 04:55:46;;;;;;;16.00;8.40;;;;;;;;;;5040839;28;20041;-82
2021/01/13 04:58:59;;;;;;;20.15;9.07;;;;;;;;;;5049421;28;20041;-82
2021/01/13 05:01:43;;;;;;;16.15;8.15;;;;;;;;;;5047979;28;20385;-82
2021/01/13 05:04:30;;;;;;;17.90;8.55;;;;;;;;;;5048697;28;20101;-83
2021/01/13 05:07:12;;;;;;;20.85;8.75;;;;;;;;;;5050287;28;20053;-83
2021/01/13 05:09:49;;;;;;;15.82;8.50;;;;;;;;;;5033472;28;20072;-83
2021/01/13 05:12:16;;;;;;;17.33;8.38;;;;;;;;;;5033425;28;20367;-83
2021/01/13 05:14:44;;;;;;;20.08;8.32;;;;;;;;;;5033762;28;20401;-83
2021/01/13 05:17:21;;;;;;;19.02;9.05;;;;;;;;;;5051154;28;20041;-83
2021/01/13 05:20:19;;;;;;;14.95;8.65;;;;;;;;;;5051927;28;20038;-82
2021/01/13 05:22:46;;;;;;;21.58;9.75;;;;;;;;;;5048981;28;20037;-82
2021/01/13 05:25:13;;;;;;;21.10;9.32;;;;;;;;;;5030209;28;20114;-82
2021/01/13 05:28:05;;;;;;;24.00;11.20;;;;;;;;;;5038453;28;20048;-81
2021/01/13 05:30:33;;;;;;;18.92;8.88;;;;;;;;;;5038995;28;20041;-82
2021/01/13 05:33:00;;;;;;;18.67;8.50;;;;;;;;;;5037881;28;20045;-82
2021/01/13 05:35:29;;;;;;;19.92;9.02;;;;;;;;;;5019989;28;20500;-82
2021/01/13 05:38:08;;;;;;;23.98;10.50;;;;;;;;;;5038531;28;20045;-82
2021/01/13 05:40:46;;;;;;;18.98;8.63;;;;;;;;;;5039021;28;20056;-83
2021/01/13 05:43:12;;;;;;;15.27;8.00;;;;;;;;;;5039619;28;20049;-83
2021/01/13 05:45:39;;;;;;;19.08;9.35;;;;;;;;;;5039848;28;20357;-83
2021/01/13 05:48:14;;;;;;;19.10;8.85;;;;;;;;;;5039336;28;20390;-83
2021/01/13 05:50:40;;;;;;;27.48;10.02;;;;;;;;;;5041694;28;20076;-83
2021/01/13 05:53:07;;;;;;;17.38;8.48;;;;;;;;;;5039958;28;20532;-82
2021/01/13 05:55:33;;;;;;;23.13;9.52;;;;;;;;;;5021643;28;20081;-82
2021/01/13 05:58:01;;;;;;;26.20;10.35;;;;;;;;;;5040176;28;20359;-82
2021/01/13 06:00:28;;;;;;;21.25;8.52;;;;;;;;;;5041140;28;20045;-82
2021/01/13 06:02:57;;;;;;;18.88;9.15;;;;;;;;;;5040791;28;20046;-83
2021/01/13 06:05:25;;;;;;;18.48;9.07;;;;;;;;;;5039836;28;20045;-82
2021/01/13 06:07:51;;;;;;;21.58;9.30;;;;;;;;;;5041020;28;20080;-81
2021/01/13 06:10:18;;;;;;;27.60;11.90;;;;;;;;;;5041953;28;20049;-82
2021/01/13 06:12:47;;;;;;;25.52;11.18;;;;;;;;;;5042388;28;20398;-82
2021/01/13 06:15:15;;;;;;;24.50;12.75;;;;;;;;;;5044064;28;20045;-82
2021/01/13 06:17:49;;;;;;;23.08;9.98;;;;;;;;;;5046812;28;20044;-82
2021/01/13 06:20:19;;;;;;;22.08;9.77;;;;;;;;;;5047183;28;20060;-82
2021/01/13 06:22:47;;;;;;;19.58;9.38;;;;;;;;;;5045907;28;20148;-83
2021/01/13 06:25:14;;;;;;;21.08;9.35;;;;;;;;;;5045014;28;20426;-83
2021/01/13 06:28:00;;;;;;;21.83;9.73;;;;;;;;;;5028894;28;20099;-84
2021/01/13 06:30:28;;;;;;;20.50;10.27;;;;;;;;;;5044972;28;20049;-83
2021/01/13 06:33:02;;;;;;;21.88;10.73;;;;;;;;;;5044479;28;20075;-83
2021/01/13 06:35:56;;;;;;;26.02;11.73;;;;;;;;;;5044878;28;20392;-82
2021/01/13 06:38:26;;;;;;;19.30;9.30;;;;;;;;;;5043715;28;20052;-83
2021/01/13 06:40:57;;;;;;;17.45;9.00;;;;;;;;;;5044744;28;20050;-83
2021/01/13 06:43:23;;;;;;;26.60;11.05;;;;;;;;;;5040529;28;20389;-83
2021/01/13 06:45:50;;;;;;;23.90;10.73;;;;;;;;;;5025575;28;20045;-83
2021/01/13 06:48:22;;;;;;;21.08;10.30;;;;;;;;;;5025821;28;20526;-84
2021/01/13 06:50:49;;;;;;;17.77;9.93;;;;;;;;;;5042166;28;20052;-85
2021/01/13 06:53:15;;;;;;;22.75;10.68;;;;;;;;;;5023701;28;20095;-84
2021/01/13 06:55:42;;;;;;;17.83;9.63;;;;;;;;;;5030787;28;20053;-85
2021/01/13 06:58:11;;;;;;;17.25;9.90;;;;;;;;;;5042144;28;20053;-85
2021/01/13 07:00:37;;;;;;;17.20;8.57;;;;;;;;;;5041187;28;20472;-84
2021/01/13 07:03:29;;;;;;;17.38;10.15;;;;;;;;;;5025101;28;20496;-84
2021/01/13 07:05:56;;;;;;;22.20;9.13;;;;;;;;;;5026832;28;20164;-85
2021/01/13 07:08:22;;;;;;;19.70;9.45;;;;;;;;;;5027894;28;20041;-85
2021/01/13 07:10:48;;;;;;;19.80;9.35;;;;;;;;;;5026664;28;20041;-85
2021/01/13 07:13:15;;;;;;;16.92;8.88;;;;;;;;;;5051311;28;20457;-85
2021/01/13 07:15:42;;;;;;;17.33;10.48;;;;;;;;;;5018513;28;20053;-85
2021/01/13 07:18:10;;;;;;;17.80;8.63;;;;;;;;;;5054871;28;20038;-85
2021/01/13 07:20:40;;;;;;;20.73;10.07;;;;;;;;;;5052902;28;20116;-85
2021/01/13 07:23:07;;;;;;;19.58;8.98;;;;;;;;;;5052244;28;20043;-86
2021/01/13 07:25:36;;;;;;;18.95;9.07;;;;;;;;;;5051733;28;20041;-85
2021/01/13 07:28:04;;;;;;;21.50;9.85;;;;;;;;;;5033893;28;20048;-85
2021/01/13 07:30:31;;;;;;;18.73;9.93;;;;;;;;;;5051348;28;20469;-85
2021/01/13 07:32:58;;;;;;;21.10;9.65;;;;;;;;;;5052226;28;20042;-86
2021/01/13 07:35:29;;;;;;;21.30;11.05;;;;;;;;;;5051859;28;20056;-85
2021/01/13 07:37:59;;;;;;;19.55;11.27;;;;;;;;;;5051316;28;20056;-85
2021/01/13 07:40:34;;;;;;;22.17;11.00;;;;;;;;;;5053019;28;20099;-86
2021/01/13 07:43:12;;;;;;;18.65;10.20;;;;;;;;;;5051702;28;20064;-85
2021/01/13 07:45:43;;;;;;;17.23;10.07;;;;;;;;;;5049159;28;20056;-85
2021/01/13 07:48:40;;;;;;;17.30;9.65;;;;;;;;;;5049189;28;20077;-85
2021/01/13 07:51:09;;;;;;;19.48;10.07;;;;;;;;;;5052291;28;20103;-86
2021/01/13 07:53:38;;;;;;;20.02;11.15;;;;;;;;;;5050243;28;20045;-86
2021/01/13 07:56:05;;;;;;;15.95;9.20;;;;;;;;;;5050738;28;20485;-85
2021/01/13 07:58:33;;;;;;;19.58;10.48;;;;;;;;;;5050392;28;20131;-86
2021/01/13 08:01:05;;;;;;;16.90;10.20;;;;;;;;;;5032238;28;20104;-85
2021/01/13 08:04:10;;;;;;;18.13;9.57;;;;;;;;;;5042745;28;20042;-84
2021/01/13 08:06:46;;;;;;;17.83;8.27;;;;;;;;;;5017226;28;20500;-85
2021/01/13 08:09:20;;;;;;;;;;;;;;;;;;5042736;28;20116;-85
2021/01/13 08:12:09;;;;;;;16.27;8.38;;;;;;;;;;5024006;28;20264;-83
2021/01/13 08:15:24;;;;;;;16.85;8.80;;;;;;;;;;5040141;28;20542;-85
2021/01/13 08:18:23;;;;;;;14.82;6.90;;;;;;;;;;5040998;28;20052;-86
2021/01/13 08:21:10;;;;;;;16.48;8.70;;;;;;;;;;5042070;28;20051;-84
2021/01/13 08:23:41;;;;;;;14.90;8.75;;;;;;;;;;5042446;28;20462;-84
2021/01/13 08:26:09;;;;;;;17.67;9.60;;;;;;;;;;5021534;28;20037;-86
2021/01/13 08:28:37;;;;;;;19.42;10.35;;;;;;;;;;5041599;28;20045;-86
2021/01/13 08:31:04;;;;;;;16.02;8.18;;;;;;;;;;5049787;28;20049;-86
2021/01/13 08:33:33;;;;;;;14.02;8.13;;;;;;;;;;5046246;28;20049;-85
2021/01/13 08:36:07;;;;;;;15.90;7.85;;;;;;;;;;5027839;28;20461;-85
2021/01/13 08:38:34;;;;;;;18.15;8.82;;;;;;;;;;5027302;28;20057;-85
2021/01/13 08:41:22;;;;;;;17.35;10.77;;;;;;;;;;5028765;28;20068;-85
2021/01/13 08:44:01;;;;;;;19.00;9.63;;;;;;;;;;5046668;28;20045;-85
2021/01/13 08:46:39;;;;;;;13.73;6.65;;;;;;;;;;5046142;28;20045;-85
2021/01/13 08:49:06;;;;;;;10.98;5.63;;;;;;;;;;5046237;28;20051;-85
2021/01/13 08:51:32;;;;;;;10.73;6.00;;;;;;;;;;5045447;28;20098;-86
2021/01/13 08:54:20;;;;;;;12.52;6.70;;;;;;;;;;5043935;28;20099;-85
2021/01/13 08:56:57;;;;;;;11.80;6.38;;;;;;;;;;5041335;28;20050;-85
2021/01/13 08:59:35;;;;;;;13.52;6.78;;;;;;;;;;5042264;28;20327;-85
2021/01/13 09:02:07;;;;;;;11.52;6.20;;;;;;;;;;5040151;28;20041;-84
2021/01/13 09:04:46;;;;;;;15.48;6.85;;;;;;;;;;5042377;28;20137;-83
2021/01/13 09:07:14;;;;;;;11.18;6.22;;;;;;;;;;5047592;28;20049;-86
2021/01/13 09:09:43;;;;;;;11.15;5.85;;;;;;;;;;5050763;28;20041;-86
2021/01/13 09:12:43;;;;;;;11.50;6.40;;;;;;;;;;5031828;28;20037;-85
2021/01/13 09:15:11;;;;;;;9.32;5.22;;;;;;;;;;5048860;28;20037;-86
2021/01/13 09:17:39;;;;;;;8.90;4.95;;;;;;;;;;5046918;28;20189;-86
2021/01/13 09:20:07;;;;;;;12.35;6.60;;;;;;;;;;5048945;28;20045;-85
2021/01/13 09:22:42;;;;;;;14.88;6.75;;;;;;;;;;5041315;28;20120;-87
2021/01/13 09:25:15;;;;;;;10.63;5.50;;;;;;;;;;5038268;28;20072;-84
2021/01/13 09:27:44;;;;;;;11.82;5.70;;;;;;;;;;5026635;28;20049;-85
2021/01/13 09:30:26;;;;;;;11.38;5.43;;;;;;;;;;5028812;28;20042;-84
2021/01/13 09:32:54;;;;;;;10.48;4.65;;;;;;;;;;5010892;28;20470;-85
2021/01/13 09:35:24;;;;;;;10.38;5.75;;;;;;;;;;5030457;28;20065;-85
2021/01/13 09:37:52;;;;;;;8.80;4.97;;;;;;;;;;5026997;28;20041;-87
2021/01/13 09:40:21;;;;;;;9.40;5.47;;;;;;;;;;5028138;28;20073;-85
2021/01/13 09:42:55;;;;;;;13.35;5.93;;;;;;;;;;5030376;28;20038;-87
2021/01/13 09:45:21;;;;;;;11.40;5.57;;;;;;;;;;5030731;28;20045;-86
2021/01/13 09:47:47;;;;;;;10.13;5.10;;;;;;;;;;5039291;28;20049;-85
2021/01/13 09:50:15;;;;;;;7.65;4.82;;;;;;;;;;5050149;28;20438;-86
2021/01/13 09:52:42;;;;;;;11.20;5.47;;;;;;;;;;5031548;28;20477;-85
2021/01/13 09:55:09;;;;;;;7.13;4.53;;;;;;;;;;5049833;28;20386;-84
2021/01/13 09:57:37;;;;;;;9.15;5.63;;;;;;;;;;5048659;28;20053;-84
2021/01/13 10:00:06;;;;;;;8.35;4.47;;;;;;;;;;5032161;28;20052;-83
2021/01/13 10:02:33;;;;;;;8.07;5.07;;;;;;;;;;5037743;28;20049;-85
2021/01/13 10:04:59;;;;;;;7.45;4.35;;;;;;;;;;5027865;28;20049;-85
2021/01/13 10:07:30;;;;;;;9.15;4.22;;;;;;;;;;5028788;28;20046;-87
2021/01/13 10:09:57;;;;;;;7.93;4.22;;;;;;;;;;5045719;28;20120;-85
2021/01/13 10:12:51;;;;;;;7.97;4.57;;;;;;;;;;5046234;28;20096;-86
2021/01/13 10:18:56;;;;;;;6.43;3.78;;;;;;;;;;5045548;28;20133;-85
2021/01/13 10:25:44;;;;;;;10.05;4.63;;;;;;;;;;5043952;28;20395;-87
2021/01/13 10:31:34;;;;;;;6.80;3.83;;;;;;;;;;5044994;28;20376;-86
2021/01/13 10:34:01;;;;;;;6.97;3.90;;;;;;;;;;5028515;28;20080;-86
2021/01/13 10:36:33;;;;;;;5.47;3.58;;;;;;;;;;5044237;28;20046;-86
2021/01/13 10:39:00;;;;;;;7.68;3.95;;;;;;;;;;5026504;28;20046;-86
2021/01/13 10:41:30;;;;;;;7.13;3.70;;;;;;;;;;5026020;28;20080;-85
2021/01/13 10:44:01;;;;;;;6.90;4.15;;;;;;;;;;5045383;28;20075;-87
2021/01/13 10:56:40;;;;;;;7.75;3.38;;;;;;;;;;5023628;28;20048;-85
2021/01/13 10:59:14;;;;;;;6.20;3.17;;;;;;;;;;5027158;28;20045;-85
2021/01/13 11:01:40;;;;;;;5.43;3.10;;;;;;;;;;5025757;28;20052;-83
2021/01/13 11:04:21;;;;;;;6.53;2.83;;;;;;;;;;5029767;28;20041;-85
2021/01/13 11:06:48;;;;;;;8.48;3.63;;;;;;;;;;5030680;28;20045;-85
2021/01/13 11:09:15;;;;;;;5.68;2.60;;;;;;;;;;5029768;28;20042;-88
2021/01/13 11:11:42;;;;;;;7.95;2.75;;;;;;;;;;5031503;28;20068;-87
2021/01/13 11:14:09;;;;;;;4.85;2.85;;;;;;;;;;5031649;28;20056;-84
2021/01/13 11:16:36;;;;;;;8.98;3.35;;;;;;;;;;5013666;28;20161;-85
2021/01/13 11:19:02;;;;;;;8.88;3.25;;;;;;;;;;5029098;28;20042;-86
2021/01/13 11:21:29;;;;;;;6.72;2.40;;;;;;;;;;5031225;28;20076;-86
2021/01/13 11:23:56;;;;;;;5.75;2.38;;;;;;;;;;5043616;28;20042;-85
2021/01/13 11:26:23;;;;;;;6.57;2.30;;;;;;;;;;5050846;28;20119;-85
2021/01/13 11:28:49;;;;;;;4.32;2.40;;;;;;;;;;5034628;28;20046;-84
2021/01/13 11:31:19;;;;;;;3.08;1.67;;;;;;;;;;5034774;28;20037;-84
2021/01/13 11:33:46;;;;;;;7.57;1.83;;;;;;;;;;5048001;28;20076;-85
2021/01/13 11:36:13;;;;;;;2.90;1.52;;;;;;;;;;5050951;28;20046;-85
2021/01/13 11:38:51;;;;;;;4.53;1.80;;;;;;;;;;5050153;28;20046;-85
2021/01/13 11:41:39;;;;;;;5.28;2.10;;;;;;;;;;5049809;28;20091;-86
2021/01/13 11:44:21;;;;;;;6.30;2.03;;;;;;;;;;5053066;28;20056;-84
2021/01/13 11:46:51;;;;;;;5.72;2.40;;;;;;;;;;5051297;28;20067;-83
2021/01/13 11:49:24;;;;;;;6.63;2.13;;;;;;;;;;5054416;28;20041;-84
2021/01/13 11:51:51;;;;;;;6.50;2.42;;;;;;;;;;5054702;28;20045;-85
2021/01/13 11:54:28;;;;;;;3.28;1.50;;;;;;;;;;5035673;28;20095;-84
2021/01/13 11:57:20;;;;;;;6.72;2.25;;;;;;;;;;5054181;28;20056;-85
2021/01/13 11:59:46;;;;;;;5.10;2.00;;;;;;;;;;5055961;28;20053;-85
2021/01/13 12:02:18;;;;;;;4.38;2.30;;;;;;;;;;5056001;28;20045;-84
2021/01/13 12:04:45;;;;;;;5.82;2.67;;;;;;;;;;5055006;28;20100;-84
2021/01/13 12:07:11;;;;;;;7.22;2.45;;;;;;;;;;5056414;28;20052;-84
2021/01/13 12:09:37;;;;;;;7.25;2.90;;;;;;;;;;5055162;28;20037;-84
2021/01/13 12:12:04;;;;;;;5.65;3.40;;;;;;;;;;5037555;28;20057;-85
2021/01/13 12:14:39;;;;;;;6.88;3.50;;;;;;;;;;5054301;28;20473;-85
2021/01/13 12:17:05;;;;;;;6.13;3.37;;;;;;;;;;5055478;28;20045;-84
2021/01/13 12:19:38;;;;;;;8.68;3.50;;;;;;;;;;5049795;28;20350;-83
2021/01/13 12:22:05;;;;;;;6.25;3.58;;;;;;;;;;5045813;28;20048;-83
2021/01/13 12:24:39;;;;;;;7.13;3.60;;;;;;;;;;5044916;28;20378;-83
2021/01/13 12:27:22;;;;;;;10.20;4.40;;;;;;;;;;5045359;28;20543;-83
2021/01/13 12:33:25;;;;;;;8.75;3.70;;;;;;;;;;5019134;28;20677;-85
2021/01/13 12:39:23;;;;;;;9.02;4.00;;;;;;;;;;5019866;28;20036;-86
2021/01/13 12:41:49;;;;;;;;;;;;;;;;;;5019811;28;20054;-86
2021/01/13 12:44:16;;;;;;;7.47;3.60;;;;;;;;;;5026776;28;19917;-87
2021/01/13 12:46:48;;;;;;;5.50;2.90;;;;;;;;;;5031368;28;20042;-87
2021/01/13 12:49:16;;;;;;;6.10;3.47;;;;;;;;;;5021179;28;20045;-88
2021/01/13 12:55:07;;;;;;;5.97;3.58;;;;;;;;;;5023196;28;20125;-87
2021/01/13 12:57:34;;;;;;;7.35;3.50;;;;;;;;;;5020444;28;20458;-86
2021/01/13 13:00:00;;;;;;;9.93;3.53;;;;;;;;;;5020794;28;20045;-87
2021/01/13 13:02:26;;;;;;;12.73;4.45;;;;;;;;;;5022143;28;20080;-88
2021/01/13 13:04:54;;;;;;;8.65;4.50;;;;;;;;;;5042998;28;20052;-87
2021/01/13 13:07:20;;;;;;;6.32;3.63;;;;;;;;;;5026302;28;20041;-87
2021/01/13 13:09:49;;;;;;;8.13;3.42;;;;;;;;;;5043474;28;20047;-87
2021/01/13 13:12:16;;;;;;;5.57;3.22;;;;;;;;;;5045111;28;20440;-86
2021/01/13 13:14:42;;;;;;;5.00;3.40;;;;;;;;;;5044048;28;20080;-87
2021/01/13 13:17:09;;;;;;;5.80;3.70;;;;;;;;;;5045606;28;20125;-88
2021/01/13 13:19:36;;;;;;;7.53;3.00;;;;;;;;;;5042844;28;20128;-87
2021/01/13 13:22:03;;;;;;;8.15;4.07;;;;;;;;;;5026821;28;20053;-87
2021/01/13 13:24:29;;;;;;;8.00;3.45;;;;;;;;;;5043930;28;20486;-88
2021/01/13 13:26:56;;;;;;;6.72;4.43;;;;;;;;;;5044300;28;20049;-87
2021/01/13 13:29:22;;;;;;;7.95;3.08;;;;;;;;;;5045048;28;20049;-87
2021/01/13 13:31:50;;;;;;;7.63;3.00;;;;;;;;;;5043866;28;20068;-86
2021/01/13 13:34:16;;;;;;;7.07;2.88;;;;;;;;;;5029387;28;20052;-86
2021/01/13 13:36:42;;;;;;;5.72;2.65;;;;;;;;;;5047049;28;20133;-87
2021/01/13 13:39:09;;;;;;;7.93;3.25;;;;;;;;;;5029083;28;20121;-87
2021/01/13 13:41:36;;;;;;;4.82;2.45;;;;;;;;;;5046443;28;20543;-87
2021/01/13 13:47:03;;;;;;;7.57;2.45;;;;;;;;;;5048889;28;20466;-86
2021/01/13 13:49:36;;;;;;;5.32;2.40;;;;;;;;;;5050116;28;20049;-88
2021/01/13 13:58:54;;;;;;;6.68;2.70;;;;;;;;;;5028394;28;20041;-87
2021/01/13 14:01:24;;;;;;;6.05;2.67;;;;;;;;;;5028062;28;20041;-87
2021/01/13 14:03:53;;;;;;;5.38;2.60;;;;;;;;;;5027191;28;20049;-86
2021/01/13 14:06:25;;;;;;;6.35;2.83;;;;;;;;;;5013206;28;20596;-87
2021/01/13 14:08:54;;;;;;;3.90;2.38;;;;;;;;;;5030500;28;20463;-87
2021/01/13 14:14:10;;;;;;;4.63;3.20;;;;;;;;;;5028934;28;20049;-85
2021/01/13 14:16:40;;;;;;;6.68;3.38;;;;;;;;;;5029747;28;20085;-85
2021/01/13 14:19:09;;;;;;;7.68;3.38;;;;;;;;;;5012731;28;20053;-86
2021/01/13 14:21:44;;;;;;;5.00;2.28;;;;;;;;;;5010736;28;20054;-84
2021/01/13 14:24:21;;;;;;;4.85;2.50;;;;;;;;;;5029730;28;20111;-84
2021/01/13 14:26:49;;;;;;;5.10;2.15;;;;;;;;;;5029471;28;20050;-85
2021/01/13 14:29:23;;;;;;;6.30;2.53;;;;;;;;;;5029296;28;20417;-85
2021/01/13 14:32:00;;;;;;;5.93;3.30;;;;;;;;;;5035510;28;20076;-86
2021/01/13 14:34:26;;;;;;;4.93;3.15;;;;;;;;;;5025561;28;20052;-85
2021/01/13 14:36:56;;;;;;;7.18;3.17;;;;;;;;;;5007967;28;20037;-84
2021/01/13 14:39:23;;;;;;;6.80;3.15;;;;;;;;;;5025924;28;20056;-85
2021/01/13 14:41:49;;;;;;;8.40;3.88;;;;;;;;;;5043656;28;20050;-85
2021/01/13 14:44:15;;;;;;;9.82;5.07;;;;;;;;;;5042002;28;20046;-86
2021/01/13 14:46:42;;;;;;;8.05;3.95;;;;;;;;;;5041580;28;20041;-86
2021/01/13 14:49:08;;;;;;;9.70;4.85;;;;;;;;;;5041573;28;20056;-86
2021/01/13 14:51:37;;;;;;;9.00;3.55;;;;;;;;;;5022692;28;20152;-85
2021/01/13 14:54:03;;;;;;;5.55;3.08;;;;;;;;;;5024082;28;20501;-85
2021/01/13 14:56:30;;;;;;;4.90;2.90;;;;;;;;;;5039595;28;20046;-85
2021/01/13 14:58:56;;;;;;;5.43;3.13;;;;;;;;;;5040178;28;20041;-85
2021/01/13 15:01:22;;;;;;;8.32;4.00;;;;;;;;;;5006997;28;20500;-85
2021/01/13 15:03:49;;;;;;;7.18;4.03;;;;;;;;;;5044070;28;20057;-85
2021/01/13 15:06:15;;;;;;;6.93;3.45;;;;;;;;;;5044207;28;20041;-84
2021/01/13 15:08:42;;;;;;;5.88;3.55;;;;;;;;;;5042558;28;20049;-85
2021/01/13 15:11:08;;;;;;;6.60;4.40;;;;;;;;;;5043051;28;20048;-84
2021/01/13 15:13:34;;;;;;;9.35;4.03;;;;;;;;;;5028064;28;20049;-85
2021/01/13 15:16:00;;;;;;;8.05;3.60;;;;;;;;;;5021906;28;20045;-84
2021/01/13 15:18:26;;;;;;;9.10;4.93;;;;;;;;;;5005292;28;20599;-83
2021/01/13 15:20:54;;;;;;;8.60;4.15;;;;;;;;;;5040207;28;20038;-83
2021/01/13 15:23:20;;;;;;;7.28;4.30;;;;;;;;;;5039424;28;20041;-84
2021/01/13 15:25:47;;;;;;;8.13;4.53;;;;;;;;;;5039169;28;20496;-83
2021/01/13 15:28:13;;;;;;;8.30;5.10;;;;;;;;;;5020994;28;20508;-84
2021/01/13 15:30:38;;;;;;;7.28;4.32;;;;;;;;;;5039961;28;20124;-84
2021/01/13 15:33:05;;;;;;;8.68;5.10;;;;;;;;;;5039449;28;20095;-84
2021/01/13 15:35:31;;;;;;;9.57;5.82;;;;;;;;;;5021368;28;20041;-84
2021/01/13 15:37:58;;;;;;;10.60;5.85;;;;;;;;;;5039842;28;20523;-84
2021/01/13 15:40:25;;;;;;;9.80;5.63;;;;;;;;;;5050487;28;20049;-84